createdAt,value
2019-03-29T00:01:48.377Z,101253.28
2019-03-29T00:04:22.859Z,101252.91
2019-03-29T00:06:56.791Z,101251.51
2019-03-29T00:09:31.495Z,101248.38
2019-03-29T00:12:07.182Z,101247.14
2019-03-29T00:14:42.340Z,101250.52
2019-03-29T00:17:17.921Z,101251.08
2019-03-29T00:19:54.133Z,101253.56
2019-03-29T00:22:28.489Z,101256.45
2019-03-29T00:25:03.020Z,101253.69
2019-03-29T00:27:37.614Z,101246.95
2019-03-29T00:30:12.844Z,101256.67
2019-03-29T00:32:47.767Z,101259.77
2019-03-29T00:35:23.244Z,101258.55
2019-03-29T00:37:58.160Z,101256.56
2019-03-29T00:40:33.421Z,101255.41
2019-03-29T00:43:07.477Z,101250.82
2019-03-29T00:45:42.347Z,101244.59
2019-03-29T00:48:17.203Z,101245.83
2019-03-29T00:50:51.611Z,101245.62
2019-03-29T00:53:25.181Z,101246.66
2019-03-29T00:55:59.997Z,101248.82
2019-03-29T00:58:34.523Z,101250.72
2019-03-29T01:01:08.581Z,101247.45
2019-03-29T01:03:42.817Z,101242.36
2019-03-29T01:06:16.813Z,101239.70
2019-03-29T01:08:52.022Z,101240.31
2019-03-29T01:11:26.934Z,101242.81
2019-03-29T01:14:01.654Z,101231.57
2019-03-29T01:16:36.374Z,101229.72
2019-03-29T01:19:10.867Z,101227.84
2019-03-29T01:21:45.495Z,101230.23
2019-03-29T01:24:20.256Z,101232.17
2019-03-29T01:26:54.551Z,101233.75
2019-03-29T01:29:29.255Z,101232.88
2019-03-29T01:32:03.727Z,101242.34
2019-03-29T01:34:38.034Z,101249.30
2019-03-29T01:37:12.037Z,101249.05
2019-03-29T01:39:47.723Z,101241.74
2019-03-29T01:42:22.271Z,101252.05
2019-03-29T01:44:56.962Z,101254.20
2019-03-29T01:47:31.013Z,101252.70
2019-03-29T01:50:06.341Z,101257.55
2019-03-29T01:52:41.040Z,101252.73
2019-03-29T01:55:16.373Z,101250.25
2019-03-29T01:57:50.341Z,101257.25
2019-03-29T02:00:36.321Z,101258.09
2019-03-29T02:03:11.145Z,101263.67
2019-03-29T02:05:46.062Z,101269.35
2019-03-29T02:08:34.819Z,101272.16
2019-03-29T02:10:58.095Z,101268.69
2019-03-29T02:13:31.778Z,101276.95
2019-03-29T02:16:06.862Z,101280.02
2019-03-29T02:18:41.587Z,101276.01
2019-03-29T02:21:17.043Z,101276.48
2019-03-29T02:23:52.303Z,101280.45
2019-03-29T02:26:27.344Z,101285.41
2019-03-29T02:29:02.164Z,101281.78
2019-03-29T02:31:36.918Z,101285.83
2019-03-29T02:34:12.079Z,101284.51
2019-03-29T02:36:46.614Z,101275.82
2019-03-29T02:39:21.712Z,101279.85
2019-03-29T02:41:56.707Z,101277.88
2019-03-29T02:44:31.480Z,101278.67
2019-03-29T02:47:06.351Z,101277.87
2019-03-29T02:49:40.754Z,101272.05
2019-03-29T02:52:15.535Z,101263.36
2019-03-29T02:54:50.305Z,101263.38
2019-03-29T02:57:24.199Z,101263.91
2019-03-29T02:59:59.009Z,101267.39
2019-03-29T03:02:33.742Z,101270.50
2019-03-29T03:05:08.063Z,101277.51
2019-03-29T03:07:41.944Z,101276.48
2019-03-29T03:10:16.674Z,101277.19
2019-03-29T03:12:51.061Z,101272.86
2019-03-29T03:15:25.554Z,101273.05
2019-03-29T03:17:59.569Z,101276.72
2019-03-29T03:20:34.506Z,101284.81
2019-03-29T03:23:09.082Z,101280.87
2019-03-29T03:25:44.339Z,101272.71
2019-03-29T03:28:19.948Z,101275.13
2019-03-29T03:30:54.452Z,101270.88
2019-03-29T03:33:28.819Z,101274.86
2019-03-29T03:36:03.914Z,101279.15
2019-03-29T03:38:38.987Z,101278.16
2019-03-29T03:41:13.218Z,101273.56
2019-03-29T03:43:48.278Z,101278.59
2019-03-29T03:46:23.029Z,101273.95
2019-03-29T03:48:58.214Z,101274.71
2019-03-29T03:51:32.752Z,101275.16
2019-03-29T03:54:08.140Z,101278.13
2019-03-29T03:56:43.342Z,101274.85
2019-03-29T03:59:18.449Z,101271.41
2019-03-29T04:01:53.611Z,101269.35
2019-03-29T04:04:28.526Z,101278.75
2019-03-29T04:07:02.990Z,101275.83
2019-03-29T04:09:49.481Z,101277.56
2019-03-29T04:12:13.933Z,101277.08
2019-03-29T04:14:47.583Z,101276.00
2019-03-29T04:17:22.176Z,101272.22
2019-03-29T04:19:57.005Z,101273.11
2019-03-29T04:22:31.541Z,101273.80
2019-03-29T04:25:06.347Z,101271.11
2019-03-29T04:27:40.715Z,101281.41
2019-03-29T04:30:16.140Z,101279.30
2019-03-29T04:32:50.876Z,101273.47
2019-03-29T04:35:26.536Z,101271.30
2019-03-29T04:38:01.642Z,101273.30
2019-03-29T04:40:36.131Z,101283.05
2019-03-29T04:43:10.881Z,101287.53
2019-03-29T04:45:46.985Z,101289.09
2019-03-29T04:48:22.074Z,101288.27
2019-03-29T04:50:57.102Z,101291.08
2019-03-29T04:53:32.013Z,101287.20
2019-03-29T04:56:07.024Z,101294.63
2019-03-29T04:58:41.514Z,101282.70
2019-03-29T05:01:17.482Z,101282.78
2019-03-29T05:03:52.396Z,101276.75
2019-03-29T05:06:27.336Z,101265.03
2019-03-29T05:09:01.116Z,101278.38
2019-03-29T05:11:36.126Z,101267.70
2019-03-29T05:14:10.839Z,101265.80
2019-03-29T05:16:45.813Z,101261.97
2019-03-29T05:19:21.417Z,101257.02
2019-03-29T05:21:55.377Z,101262.86
2019-03-29T05:24:30.433Z,101267.89
2019-03-29T05:27:05.973Z,101262.82
2019-03-29T05:29:41.389Z,101266.66
2019-03-29T05:32:16.179Z,101268.66
2019-03-29T05:34:50.567Z,101272.42
2019-03-29T05:37:25.703Z,101278.92
2019-03-29T05:39:59.970Z,101271.80
2019-03-29T05:42:35.550Z,101275.38
2019-03-29T05:45:10.120Z,101268.02
2019-03-29T05:47:45.301Z,101276.46
2019-03-29T05:50:21.068Z,101275.19
2019-03-29T05:52:55.612Z,101265.51
2019-03-29T05:55:32.762Z,101267.36
2019-03-29T05:58:06.552Z,101269.81
2019-03-29T06:00:41.396Z,101274.30
2019-03-29T06:03:16.340Z,101273.92
2019-03-29T06:05:50.911Z,101279.06
2019-03-29T06:08:25.627Z,101276.79
2019-03-29T06:10:59.700Z,101276.73
2019-03-29T06:13:34.510Z,101260.75
2019-03-29T06:16:08.778Z,101266.72
2019-03-29T06:18:42.858Z,101271.84
2019-03-29T06:21:17.811Z,101271.11
2019-03-29T06:23:52.809Z,101271.96
2019-03-29T06:26:27.884Z,101270.69
2019-03-29T06:29:02.193Z,101270.52
2019-03-29T06:31:37.103Z,101267.94
2019-03-29T06:34:12.020Z,101275.23
2019-03-29T06:36:50.539Z,101273.84
2019-03-29T06:39:25.798Z,101277.93
2019-03-29T06:41:59.256Z,101272.59
2019-03-29T06:44:34.280Z,101274.68
2019-03-29T06:47:09.450Z,101280.75
2019-03-29T06:49:44.881Z,101281.45
2019-03-29T06:52:20.863Z,101282.18
2019-03-29T06:54:55.090Z,101289.19
2019-03-29T06:57:29.973Z,101282.29
2019-03-29T07:00:03.351Z,101283.58
2019-03-29T07:02:36.834Z,101279.96
2019-03-29T07:05:09.944Z,101289.89
2019-03-29T07:07:47.114Z,101289.08
2019-03-29T07:10:21.510Z,101289.41
2019-03-29T07:12:56.981Z,101287.25
2019-03-29T07:15:30.995Z,101286.69
2019-03-29T07:18:04.380Z,101289.53
2019-03-29T07:20:42.376Z,101281.69
2019-03-29T07:23:16.168Z,101283.41
2019-03-29T07:25:50.403Z,101286.70
2019-03-29T07:28:24.930Z,101294.00
2019-03-29T07:30:58.024Z,101291.68
2019-03-29T07:33:33.271Z,101294.94
2019-03-29T07:36:09.282Z,101291.39
2019-03-29T07:38:42.725Z,101295.44
2019-03-29T07:41:30.738Z,101297.89
2019-03-29T07:43:52.942Z,101288.54
2019-03-29T07:46:27.521Z,101279.23
2019-03-29T07:49:01.348Z,101282.20
2019-03-29T07:51:36.666Z,101287.92
2019-03-29T07:54:11.293Z,101293.70
2019-03-29T07:56:45.948Z,101285.04
2019-03-29T07:59:20.808Z,101291.59
2019-03-29T08:01:55.416Z,101288.59
2019-03-29T08:04:31.087Z,101292.67
2019-03-29T08:07:06.268Z,101285.47
2019-03-29T08:09:41.325Z,101279.17
2019-03-29T08:12:16.111Z,101281.05
2019-03-29T08:14:50.510Z,101282.34
2019-03-29T08:17:25.069Z,101279.33
2019-03-29T08:20:35.770Z,101277.09
2019-03-29T08:22:36.696Z,101274.82
2019-03-29T08:25:11.203Z,101278.31
2019-03-29T08:27:46.030Z,101272.88
2019-03-29T08:30:20.675Z,101269.08
2019-03-29T08:32:55.859Z,101265.83
2019-03-29T08:35:30.750Z,101264.42
2019-03-29T08:38:06.388Z,101264.70
2019-03-29T08:40:44.956Z,101256.46
2019-03-29T08:43:18.311Z,101258.53
2019-03-29T08:45:53.269Z,101254.73
2019-03-29T08:48:27.884Z,101255.76
2019-03-29T08:51:02.779Z,101251.19
2019-03-29T08:53:37.326Z,101255.72
2019-03-29T08:56:12.215Z,101249.28
2019-03-29T08:58:46.670Z,101251.33
2019-03-29T09:01:20.830Z,101241.22
2019-03-29T09:04:04.743Z,101248.76
2019-03-29T09:06:31.300Z,101250.11
2019-03-29T09:09:07.882Z,101251.62
2019-03-29T09:11:41.686Z,101255.12
2019-03-29T09:14:15.888Z,101256.96
2019-03-29T09:16:49.569Z,101255.13
2019-03-29T09:19:24.432Z,101254.95
2019-03-29T09:21:57.810Z,101248.59
2019-03-29T09:24:32.301Z,101246.36
2019-03-29T09:27:07.262Z,101246.11
2019-03-29T09:29:40.902Z,101237.38
2019-03-29T09:32:14.919Z,101239.33
2019-03-29T09:34:48.407Z,101237.80
2019-03-29T09:37:21.425Z,101234.67
2019-03-29T09:39:54.767Z,101232.45
2019-03-29T09:42:29.660Z,101228.23
2019-03-29T09:45:02.512Z,101232.45
2019-03-29T09:47:40.089Z,101223.66
2019-03-29T09:50:12.279Z,101223.94
2019-03-29T09:52:47.033Z,101217.10
2019-03-29T09:55:20.742Z,101219.45
2019-03-29T09:57:54.708Z,101226.01
2019-03-29T10:00:28.789Z,101231.72
2019-03-29T10:03:02.973Z,101227.47
2019-03-29T10:05:38.031Z,101224.73
2019-03-29T10:08:12.328Z,101223.94
2019-03-29T10:10:46.943Z,101218.66
2019-03-29T10:13:20.757Z,101228.96
2019-03-29T10:15:54.778Z,101215.92
2019-03-29T10:18:29.803Z,101215.70
2019-03-29T10:21:04.842Z,101221.95
2019-03-29T10:23:39.305Z,101217.87
2019-03-29T10:26:13.908Z,101216.41
2019-03-29T10:28:48.205Z,101208.09
2019-03-29T10:31:32.137Z,101206.55
2019-03-29T10:33:59.273Z,101205.46
2019-03-29T10:36:34.069Z,101205.08
2019-03-29T10:39:12.959Z,101201.47
2019-03-29T10:41:47.819Z,101204.11
2019-03-29T10:44:22.438Z,101191.34
2019-03-29T10:46:57.506Z,101192.66
2019-03-29T10:49:31.176Z,101192.80
2019-03-29T10:52:06.218Z,101184.88
2019-03-29T10:54:40.613Z,101186.30
2019-03-29T10:57:14.823Z,101174.22
2019-03-29T10:59:49.063Z,101177.95
2019-03-29T11:02:24.115Z,101167.36
2019-03-29T11:04:58.836Z,101167.86
2019-03-29T11:07:33.442Z,101166.27
2019-03-29T11:10:08.109Z,101169.23
2019-03-29T11:12:43.022Z,101157.23
2019-03-29T11:15:16.823Z,101157.09
2019-03-29T11:17:50.805Z,101159.08
2019-03-29T11:20:26.305Z,101160.05
2019-03-29T11:22:59.567Z,101158.69
2019-03-29T11:25:33.893Z,101156.08
2019-03-29T11:28:07.168Z,101163.58
2019-03-29T11:30:42.973Z,101158.52
2019-03-29T11:33:17.068Z,101159.95
2019-03-29T11:35:51.062Z,101159.54
2019-03-29T11:38:25.625Z,101159.28
2019-03-29T11:40:59.706Z,101158.20
2019-03-29T11:43:34.008Z,101152.88
2019-03-29T11:46:08.344Z,101155.75
2019-03-29T11:48:42.436Z,101160.31
2019-03-29T11:51:19.531Z,101154.39
2019-03-29T11:53:53.840Z,101147.84
2019-03-29T11:56:28.890Z,101144.98
2019-03-29T11:59:02.806Z,101148.00
2019-03-29T12:01:37.943Z,101147.73
2019-03-29T12:04:13.185Z,101130.81
2019-03-29T12:06:48.233Z,101130.15
2019-03-29T12:09:23.148Z,101123.31
2019-03-29T12:11:58.098Z,101126.11
2019-03-29T12:14:33.038Z,101119.44
2019-03-29T12:17:07.216Z,101121.53
2019-03-29T12:19:42.386Z,101118.08
2019-03-29T12:22:18.188Z,101121.46
2019-03-29T12:24:53.897Z,101125.34
2019-03-29T12:27:28.840Z,101115.31
2019-03-29T12:30:04.361Z,101109.88
2019-03-29T12:32:38.946Z,101103.80
2019-03-29T12:35:13.109Z,101107.45
2019-03-29T12:37:47.468Z,101093.77
2019-03-29T12:40:21.940Z,101081.48
2019-03-29T12:42:56.364Z,101083.97
2019-03-29T12:45:30.829Z,101079.30
2019-03-29T12:48:05.713Z,101086.12
2019-03-29T12:50:40.186Z,101088.42
2019-03-29T12:53:14.529Z,101088.92
2019-03-29T12:55:48.639Z,101084.13
2019-03-29T12:58:23.691Z,101072.36
2019-03-29T13:00:57.255Z,101067.28
2019-03-29T13:03:30.524Z,101061.48
2019-03-29T13:06:04.231Z,101065.62
2019-03-29T13:08:38.648Z,101059.20
2019-03-29T13:11:11.425Z,101054.64
2019-03-29T13:13:45.803Z,101046.14
2019-03-29T13:16:20.852Z,101041.08
2019-03-29T13:18:54.854Z,101042.21
2019-03-29T13:21:28.696Z,101048.66
2019-03-29T13:24:03.110Z,101049.77
2019-03-29T13:26:37.643Z,101044.72
2019-03-29T13:29:12.492Z,101047.34
2019-03-29T13:31:47.344Z,101041.31
2019-03-29T13:34:21.074Z,101023.69
2019-03-29T13:36:55.023Z,101027.46
2019-03-29T13:39:28.302Z,101025.42
2019-03-29T13:42:02.544Z,101023.08
2019-03-29T13:44:36.011Z,101024.36
2019-03-29T13:47:10.118Z,101025.23
2019-03-29T13:49:45.854Z,101023.03
2019-03-29T13:52:19.492Z,101017.14
2019-03-29T13:54:53.989Z,101019.82
2019-03-29T13:57:28.748Z,101014.62
2019-03-29T14:00:03.407Z,101013.14
2019-03-29T14:02:37.110Z,101019.59
2019-03-29T14:05:11.428Z,101009.91
2019-03-29T14:07:46.585Z,101013.43
2019-03-29T14:10:21.238Z,101007.69
2019-03-29T14:12:55.884Z,101006.97
2019-03-29T14:15:30.701Z,101003.94
2019-03-29T14:18:05.110Z,100998.95
2019-03-29T14:20:39.981Z,100996.53
2019-03-29T14:23:14.671Z,100992.57
2019-03-29T14:25:48.875Z,100982.13
2019-03-29T14:28:24.625Z,100984.07
2019-03-29T14:30:58.084Z,100982.30
2019-03-29T14:33:31.969Z,100976.86
2019-03-29T14:36:06.795Z,100974.23
2019-03-29T14:38:41.031Z,100975.23
2019-03-29T14:41:15.141Z,100977.75
2019-03-29T14:43:49.474Z,100972.71
2019-03-29T14:46:23.923Z,100962.77
2019-03-29T14:48:58.644Z,100962.28
2019-03-29T14:51:33.246Z,100956.34
2019-03-29T14:54:07.731Z,100958.16
2019-03-29T14:56:41.947Z,100961.53
2019-03-29T14:59:16.420Z,100968.00
2019-03-29T15:01:50.542Z,100967.73
2019-03-29T15:04:25.239Z,100961.34
2019-03-29T15:06:59.788Z,100954.95
2019-03-29T15:09:34.423Z,100954.27
2019-03-29T15:12:08.992Z,100953.52
2019-03-29T15:14:42.875Z,100953.69
2019-03-29T15:17:17.709Z,100948.89
2019-03-29T15:19:52.171Z,100952.50
2019-03-29T15:22:27.199Z,100950.98
2019-03-29T15:25:02.007Z,100948.89
2019-03-29T15:27:37.041Z,100944.01
2019-03-29T15:30:11.048Z,100946.02
2019-03-29T15:32:45.732Z,100937.02
2019-03-29T15:35:21.064Z,100936.02
2019-03-29T15:37:55.623Z,100935.66
2019-03-29T15:40:30.574Z,100935.06
2019-03-29T15:43:05.587Z,100931.76
2019-03-29T15:45:40.537Z,100927.15
2019-03-29T15:48:15.583Z,100926.99
2019-03-29T15:50:49.941Z,100926.72
2019-03-29T15:53:24.956Z,100926.73
2019-03-29T15:55:59.823Z,100925.15
2019-03-29T15:58:33.598Z,100919.67
2019-03-29T16:01:07.753Z,100918.77
2019-03-29T16:03:42.716Z,100915.30
2019-03-29T16:06:17.206Z,100918.50
2019-03-29T16:08:51.654Z,100918.59
2019-03-29T16:11:25.685Z,100918.00
2019-03-29T16:14:00.585Z,100919.17
2019-03-29T16:16:35.439Z,100912.27
2019-03-29T16:19:10.365Z,100911.39
2019-03-29T16:21:44.786Z,100912.15
2019-03-29T16:24:18.473Z,100908.30
2019-03-29T16:26:53.526Z,100897.49
2019-03-29T16:29:28.153Z,100904.23
2019-03-29T16:32:02.491Z,100904.34
2019-03-29T16:34:37.526Z,100899.44
2019-03-29T16:37:11.968Z,100899.21
2019-03-29T16:39:46.923Z,100897.53
2019-03-29T16:42:21.404Z,100896.12
2019-03-29T16:44:56.405Z,100893.92
2019-03-29T16:47:30.927Z,100891.06
2019-03-29T16:50:05.656Z,100894.27
2019-03-29T16:52:40.205Z,100897.20
2019-03-29T16:55:14.854Z,100893.33
2019-03-29T16:57:49.677Z,100893.75
2019-03-29T17:00:23.656Z,100888.68
2019-03-29T17:02:57.877Z,100880.34
2019-03-29T17:05:30.656Z,100881.99
2019-03-29T17:08:05.787Z,100883.69
2019-03-29T17:10:41.001Z,100883.23
2019-03-29T17:13:15.079Z,100879.75
2019-03-29T17:16:01.166Z,100885.91
2019-03-29T17:18:29.500Z,100885.11
2019-03-29T17:20:59.398Z,100880.66
2019-03-29T17:23:33.174Z,100883.44
2019-03-29T17:26:07.838Z,100884.26
2019-03-29T17:28:44.696Z,100886.22
2019-03-29T17:31:18.428Z,100881.47
2019-03-29T17:33:52.855Z,100882.42
2019-03-29T17:36:26.817Z,100880.31
2019-03-29T17:39:00.689Z,100882.51
2019-03-29T17:41:35.823Z,100883.48
2019-03-29T17:44:10.811Z,100881.27
2019-03-29T17:46:43.815Z,100878.97
2019-03-29T17:49:17.261Z,100879.67
2019-03-29T17:51:50.449Z,100882.36
2019-03-29T17:54:29.992Z,100883.73
2019-03-29T17:57:04.223Z,100882.31
2019-03-29T17:59:38.114Z,100884.30
2019-03-29T18:02:11.412Z,100886.27
2019-03-29T18:04:44.733Z,100886.06
2019-03-29T18:07:19.130Z,100882.50
2019-03-29T18:09:53.728Z,100883.88
2019-03-29T18:12:27.451Z,100883.06
2019-03-29T18:15:01.147Z,100888.21
2019-03-29T18:17:34.889Z,100890.00
2019-03-29T18:20:08.731Z,100890.59
2019-03-29T18:22:42.343Z,100890.95
2019-03-29T18:25:16.702Z,100888.20
2019-03-29T18:27:50.982Z,100887.55
2019-03-29T18:30:41.680Z,100885.83
2019-03-29T18:33:16.670Z,100881.23
2019-03-29T18:35:55.231Z,100885.80
2019-03-29T18:38:30.126Z,100886.89
2019-03-29T18:41:03.742Z,100883.58
2019-03-29T18:43:38.526Z,100884.03
2019-03-29T18:46:13.043Z,100883.70
2019-03-29T18:48:47.725Z,100880.86
2019-03-29T18:51:21.841Z,100876.00
2019-03-29T18:53:56.731Z,100884.05
2019-03-29T18:56:31.398Z,100880.25
2019-03-29T18:59:05.844Z,100872.20
2019-03-29T19:01:39.131Z,100870.09
2019-03-29T19:04:11.979Z,100868.64
2019-03-29T19:06:46.103Z,100869.17
2019-03-29T19:09:21.718Z,100874.75
2019-03-29T19:11:56.003Z,100875.12
2019-03-29T19:14:29.321Z,100873.32
2019-03-29T19:17:03.860Z,100870.90
2019-03-29T19:19:38.047Z,100865.94
2019-03-29T19:22:10.806Z,100865.97
2019-03-29T19:24:46.061Z,100859.59
2019-03-29T19:27:20.342Z,100864.92
2019-03-29T19:29:54.780Z,100863.49
2019-03-29T19:32:28.701Z,100865.98
2019-03-29T19:35:02.449Z,100862.47
2019-03-29T19:37:36.921Z,100861.60
2019-03-29T19:40:11.438Z,100867.53
2019-03-29T19:42:44.777Z,100868.95
2019-03-29T19:45:19.453Z,100871.06
2019-03-29T19:47:53.542Z,100870.30
2019-03-29T19:50:28.430Z,100867.69
2019-03-29T19:53:02.723Z,100864.54
2019-03-29T19:55:37.024Z,100866.52
2019-03-29T19:58:14.878Z,100860.31
2019-03-29T20:00:47.954Z,100860.98
2019-03-29T20:03:23.492Z,100857.45
2019-03-29T20:05:58.155Z,100853.61
2019-03-29T20:08:31.324Z,100856.66
2019-03-29T20:11:05.500Z,100850.27
2019-03-29T20:13:41.159Z,100848.47
2019-03-29T20:16:14.991Z,100848.09
2019-03-29T20:18:49.997Z,100848.42
2019-03-29T20:21:23.724Z,100847.72
2019-03-29T20:23:56.900Z,100848.84
2019-03-29T20:26:32.258Z,100848.67
2019-03-29T20:29:06.267Z,100843.77
2019-03-29T20:31:40.260Z,100840.91
2019-03-29T20:34:15.352Z,100842.47
2019-03-29T20:36:49.740Z,100840.55
2019-03-29T20:39:24.045Z,100842.95
2019-03-29T20:41:57.605Z,100837.25
2019-03-29T20:44:31.015Z,100834.75
2019-03-29T20:47:04.213Z,100834.85
2019-03-29T20:49:38.295Z,100832.70
2019-03-29T20:52:12.159Z,100833.69
2019-03-29T20:54:45.443Z,100829.38
2019-03-29T20:57:19.664Z,100827.39
2019-03-29T20:59:53.684Z,100825.15
2019-03-29T21:02:29.157Z,100825.53
2019-03-29T21:05:01.884Z,100822.03
2019-03-29T21:07:36.721Z,100830.23
2019-03-29T21:10:10.799Z,100833.55
2019-03-29T21:12:44.471Z,100831.20
2019-03-29T21:15:20.932Z,100827.92
2019-03-29T21:17:56.911Z,100829.05
2019-03-29T21:20:31.441Z,100825.89
2019-03-29T21:23:04.754Z,100820.31
2019-03-29T21:25:38.545Z,100822.32
2019-03-29T21:28:12.586Z,100823.26
2019-03-29T21:30:47.229Z,100816.59
2019-03-29T21:33:21.669Z,100818.62
2019-03-29T21:35:56.758Z,100820.44
2019-03-29T21:38:31.286Z,100819.42
2019-03-29T21:41:06.013Z,100819.87
2019-03-29T21:43:41.061Z,100816.05
2019-03-29T21:46:16.040Z,100814.66
2019-03-29T21:48:52.583Z,100811.83
2019-03-29T21:51:25.804Z,100810.80
2019-03-29T21:54:00.193Z,100807.97
2019-03-29T21:56:33.891Z,100811.45
2019-03-29T21:59:07.992Z,100813.36
2019-03-29T22:01:43.271Z,100809.78
2019-03-29T22:04:18.211Z,100807.90
2019-03-29T22:06:52.820Z,100808.81
2019-03-29T22:09:36.888Z,100810.16
2019-03-29T22:12:03.129Z,100804.56
2019-03-29T22:14:37.248Z,100802.77
2019-03-29T22:17:12.159Z,100806.84
2019-03-29T22:19:46.834Z,100799.25
2019-03-29T22:22:22.120Z,100800.06
2019-03-29T22:24:56.828Z,100798.56
2019-03-29T22:27:31.558Z,100795.23
2019-03-29T22:30:05.912Z,100796.61
2019-03-29T22:32:40.416Z,100794.53
2019-03-29T22:35:15.052Z,100792.20
2019-03-29T22:37:49.272Z,100793.73
2019-03-29T22:40:24.194Z,100798.91
2019-03-29T22:42:59.539Z,100794.16
2019-03-29T22:45:34.703Z,100794.50
2019-03-29T22:48:09.713Z,100792.77
2019-03-29T22:50:42.881Z,100795.55
2019-03-29T22:53:17.017Z,100788.58
2019-03-29T22:55:50.767Z,100793.75
2019-03-29T22:58:28.341Z,100795.69
2019-03-29T23:01:05.271Z,100796.70
2019-03-29T23:03:40.253Z,100800.25
2019-03-29T23:06:14.929Z,100799.95
2019-03-29T23:08:49.957Z,100794.86
2019-03-29T23:11:24.500Z,100792.64
2019-03-29T23:13:59.096Z,100787.91
2019-03-29T23:16:33.200Z,100791.85
2019-03-29T23:19:07.367Z,100782.28
2019-03-29T23:21:41.821Z,100784.56
2019-03-29T23:24:16.699Z,100779.45
2019-03-29T23:26:51.227Z,100780.08
2019-03-29T23:29:26.460Z,100779.57
2019-03-29T23:32:01.011Z,100771.42
2019-03-29T23:34:35.923Z,100773.52
2019-03-29T23:37:10.746Z,100772.06
2019-03-29T23:39:44.746Z,100772.05
2019-03-29T23:42:18.923Z,100776.95
2019-03-29T23:44:53.400Z,100769.66
2019-03-29T23:47:28.232Z,100766.51
2019-03-29T23:50:02.764Z,100766.27
2019-03-29T23:52:37.314Z,100769.81
2019-03-29T23:55:11.881Z,100767.72
2019-03-29T23:57:45.915Z,100769.59
